Aeroboteco Virtual Airlines! Uma nuvem a frente.



 INFORMAÇÕES METEOROLÓGICAS
METAR FOR SBMT
ADDS - METARS form results

(2317 UTC 18 August 2019)
Data provider http://aviationweather.gov/metar/data/
 
METAR text: SBMT 182300Z 18002KT CAVOK 20/12 Q1018
Conditions at: SBMT (MARTE (CIV/MIL) , BR) observed 2300 UTC 18 August 2019
Temperature: 20.0°C (68°F)
Dewpoint: 12.0°C (54°F) [RH = 60%]
Pressure (altimeter): 30.06 inches Hg (1018.0 mb)
Winds: from the S (180 degrees) at 2 MPH (2 knots; 1.0 m/s)
Visibility: 6 or more miles (10+ km)
Ceiling: ceiling and visibility are OK
Clouds: unknown
Weather: no significant weather observed at this time

 MAPA DO AEROPORTO

 INFORMAÇÕES DA PISTA
Pista 12 Tamanho da pista 5249 ft Largura da pista 147 ft
Elevação da pista 2379 ft Ranhura da pista 984 ft Proa da pista 100
Pista 30 Tamanho da pista 5249 ft Largura da pista 147 ft
Elevação da pista 2376 ft Ranhura da pista 492 ft Proa da pista 280

 FREQUÊNCIAS DO AEROPORTO
Tipo APP Nome SAO PAULO Frequência 119.8 MHZ
Tipo GND Nome GND Frequência 121.6 MHZ
Tipo OPS Nome OPS Frequência 122.5 MHZ
Tipo TWR Nome TWR Frequência 118.7 MHZ

 AUXÍLIOS DE NAVEGAÇÃO PRÓXIMOS AO AEROPORTO
Tipo NDB Nome Marte Frequência 260 KHZ